Upper Jay, New York
Current Conditions -  °F | °C
As of 8:51 PM on Saturday 25 Oct 2014 (Local Time) from KSLK Reporting Station
Overcast Overcast  
Wind Chill: 45°   Ceiling: 1600
Heat Index: 48°   Visibility: 10mi
Dew Point: 46°   Wind: 6mph
Humidity: 93%   Direction: 240°WSW
Pressure: 29.5"   Gusts: NA
Location:  44.34°N, 73.78°W
Report Text: KSLK 260051Z AUTO 24005KT 10SM BKN016 BKN023 OVC035 09/08 A2950 RMK AO2 SLP995 T00890078
Loading
Personal Weather Stations






























Interactive Weather Map
Tropical Storm Tracking
New forecast layout! Learn more

10-Day Weather Forecast

Advertisements
Track Severe Weather on mobile